createdAt,value
2018-12-16T00:00:28.841Z,28.63
2018-12-16T00:02:57.411Z,27.40
2018-12-16T00:05:25.760Z,31.17
2018-12-16T00:07:54.175Z,27.27
2018-12-16T00:10:22.647Z,30.90
2018-12-16T00:12:51.063Z,30.07
2018-12-16T00:15:19.631Z,32.30
2018-12-16T00:17:47.976Z,31.40
2018-12-16T00:20:16.371Z,28.50
2018-12-16T00:22:44.871Z,33.93
2018-12-16T00:25:13.430Z,27.60
2018-12-16T00:27:41.816Z,32.20
2018-12-16T00:30:10.315Z,31.57
2018-12-16T00:32:38.699Z,30.20
2018-12-16T00:35:07.287Z,28.23
2018-12-16T00:37:35.677Z,33.57
2018-12-16T00:40:04.232Z,30.97
2018-12-16T00:42:32.723Z,32.37
2018-12-16T00:45:01.136Z,31.73
2018-12-16T00:47:29.504Z,35.83
2018-12-16T00:49:58.105Z,28.53
2018-12-16T00:52:26.590Z,30.67
2018-12-16T00:54:55.059Z,32.90
2018-12-16T00:57:23.451Z,33.57
2018-12-16T00:59:51.839Z,32.40
2018-12-16T01:02:25.623Z,35.40
2018-12-16T01:04:54.034Z,31.80
2018-12-16T01:07:22.387Z,27.90
2018-12-16T01:09:50.972Z,35.00
2018-12-16T01:12:19.298Z,30.97
2018-12-16T01:14:47.674Z,35.33
2018-12-16T01:17:16.011Z,38.23
2018-12-16T01:19:44.354Z,35.23
2018-12-16T01:22:12.823Z,32.33
2018-12-16T01:24:41.220Z,32.20
2018-12-16T01:27:09.691Z,34.20
2018-12-16T01:29:38.018Z,35.47
2018-12-16T01:32:06.414Z,33.53
2018-12-16T01:34:34.767Z,36.53
2018-12-16T01:37:03.218Z,35.83
2018-12-16T01:39:31.551Z,35.70
2018-12-16T01:41:59.930Z,39.13
2018-12-16T01:44:28.335Z,32.80
2018-12-16T01:46:56.690Z,38.30
2018-12-16T01:49:25.023Z,41.60
2018-12-16T01:51:53.399Z,40.40
2018-12-16T01:54:21.855Z,38.50
2018-12-16T01:56:50.213Z,40.67
2018-12-16T01:59:18.670Z,39.23
2018-12-16T02:01:52.730Z,39.63
2018-12-16T02:04:21.112Z,37.33
2018-12-16T02:06:49.488Z,42.77
2018-12-16T02:09:18.012Z,41.93
2018-12-16T02:11:46.407Z,38.77
2018-12-16T02:14:14.763Z,44.27
2018-12-16T02:16:43.131Z,40.57
2018-12-16T02:19:11.596Z,42.17
2018-12-16T02:21:40.016Z,36.10
2018-12-16T02:24:08.508Z,38.63
2018-12-16T02:26:36.932Z,37.93
2018-12-16T02:29:05.431Z,42.17
2018-12-16T02:31:33.941Z,42.53
2018-12-16T02:34:02.425Z,38.17
2018-12-16T02:36:30.867Z,39.63
2018-12-16T02:38:59.245Z,41.23
2018-12-16T02:41:27.653Z,42.43
2018-12-16T02:43:56.008Z,37.63
2018-12-16T02:46:24.391Z,46.50
2018-12-16T02:48:52.769Z,39.20
2018-12-16T02:51:21.171Z,42.90
2018-12-16T02:53:49.655Z,44.10
2018-12-16T02:56:18.131Z,40.90
2018-12-16T02:58:46.512Z,41.27
2018-12-16T03:01:14.871Z,41.30
2018-12-16T03:03:43.290Z,45.20
2018-12-16T03:06:11.700Z,44.33
2018-12-16T03:08:40.089Z,42.23
2018-12-16T03:11:08.443Z,44.07
2018-12-16T03:13:36.800Z,44.07
2018-12-16T03:16:05.181Z,44.70
2018-12-16T03:18:33.534Z,42.70
2018-12-16T03:21:01.912Z,44.93
2018-12-16T03:23:30.344Z,41.03
2018-12-16T03:25:58.740Z,46.27
2018-12-16T03:28:27.116Z,41.23
2018-12-16T03:30:55.492Z,45.17
2018-12-16T03:33:23.883Z,42.83
2018-12-16T03:35:52.299Z,50.37
2018-12-16T03:38:20.704Z,44.37
2018-12-16T03:40:49.085Z,43.17
2018-12-16T03:43:17.449Z,41.73
2018-12-16T03:45:45.891Z,45.77
2018-12-16T03:48:14.425Z,41.07
2018-12-16T03:50:42.811Z,47.47
2018-12-16T03:53:11.192Z,43.43
2018-12-16T03:55:39.533Z,45.10
2018-12-16T03:58:07.868Z,46.37
2018-12-16T04:00:36.199Z,45.17
2018-12-16T04:03:04.679Z,49.43
2018-12-16T04:05:33.060Z,43.67
2018-12-16T04:08:01.457Z,51.23
2018-12-16T04:10:29.967Z,46.00
2018-12-16T04:12:58.340Z,46.23
2018-12-16T04:15:26.720Z,47.13
2018-12-16T04:17:55.103Z,44.57
2018-12-16T04:20:23.547Z,46.73
2018-12-16T04:22:51.955Z,44.57
2018-12-16T04:25:22.334Z,45.10
2018-12-16T04:27:50.708Z,47.27
2018-12-16T04:30:19.232Z,49.40
2018-12-16T04:32:47.592Z,44.20
2018-12-16T04:35:15.961Z,45.73
2018-12-16T04:37:44.315Z,44.70
2018-12-16T04:40:12.808Z,43.90
2018-12-16T04:42:41.248Z,45.30
2018-12-16T04:45:09.667Z,49.20
2018-12-16T04:47:38.035Z,46.47
2018-12-16T04:50:07.240Z,48.33
2018-12-16T04:52:35.560Z,43.00
2018-12-16T04:55:04.044Z,44.57
2018-12-16T04:57:32.419Z,47.57
2018-12-16T05:00:00.829Z,50.03
2018-12-16T05:02:29.196Z,49.57
2018-12-16T05:04:57.566Z,47.10
2018-12-16T05:07:25.943Z,47.57
2018-12-16T05:09:54.290Z,48.20
2018-12-16T05:12:22.660Z,47.00
2018-12-16T05:14:51.116Z,45.60
2018-12-16T05:17:19.555Z,47.10
2018-12-16T05:19:47.931Z,45.67
2018-12-16T05:22:16.286Z,44.23
2018-12-16T05:24:44.674Z,49.67
2018-12-16T05:27:13.013Z,49.10
2018-12-16T05:29:41.406Z,48.93
2018-12-16T05:32:09.806Z,44.97
2018-12-16T05:34:38.197Z,42.73
2018-12-16T05:37:06.616Z,41.30
2018-12-16T05:39:34.974Z,47.40
2018-12-16T05:42:03.338Z,44.53
2018-12-16T05:44:31.727Z,46.30
2018-12-16T05:47:00.099Z,46.13
2018-12-16T05:49:28.439Z,49.00
2018-12-16T05:51:56.796Z,49.17
2018-12-16T05:54:25.177Z,47.30
2018-12-16T05:56:53.886Z,49.53
2018-12-16T05:59:22.259Z,47.17
2018-12-16T06:01:50.607Z,45.70
2018-12-16T06:04:19.012Z,48.73
2018-12-16T06:06:47.336Z,40.03
2018-12-16T06:09:15.727Z,40.57
2018-12-16T06:11:44.203Z,44.87
2018-12-16T06:14:12.731Z,45.07
2018-12-16T06:16:41.177Z,41.10
2018-12-16T06:19:09.566Z,41.87
2018-12-16T06:21:37.928Z,42.73
2018-12-16T06:24:06.278Z,45.40
2018-12-16T06:26:34.622Z,45.10
2018-12-16T06:29:02.998Z,41.80
2018-12-16T06:31:31.353Z,40.63
2018-12-16T06:33:59.807Z,46.37
2018-12-16T06:36:28.151Z,45.50
2018-12-16T06:38:56.508Z,43.07
2018-12-16T06:41:24.860Z,45.40
2018-12-16T06:43:53.227Z,47.73
2018-12-16T06:46:21.660Z,42.97
2018-12-16T06:48:50.076Z,45.67
2018-12-16T06:51:18.498Z,42.80
2018-12-16T06:53:46.893Z,49.37
2018-12-16T06:56:15.275Z,49.63
2018-12-16T06:58:43.618Z,43.57
2018-12-16T07:01:12.007Z,46.27
2018-12-16T07:03:40.424Z,46.27
2018-12-16T07:06:08.788Z,49.43
2018-12-16T07:08:37.125Z,46.90
2018-12-16T07:11:05.586Z,48.80
2018-12-16T07:13:33.967Z,48.23
2018-12-16T07:16:02.320Z,47.00
2018-12-16T07:18:30.663Z,43.27
2018-12-16T07:20:59.048Z,41.70
2018-12-16T07:23:28.157Z,47.07
2018-12-16T07:25:56.715Z,49.20
2018-12-16T07:28:25.183Z,40.20
2018-12-16T07:30:53.745Z,43.63
2018-12-16T07:33:22.214Z,47.03
2018-12-16T07:35:50.790Z,42.47
2018-12-16T07:38:19.388Z,45.57
2018-12-16T07:40:47.759Z,42.30
2018-12-16T07:43:16.100Z,40.10
2018-12-16T07:45:44.476Z,48.57
2018-12-16T07:48:12.824Z,45.67
2018-12-16T07:50:41.762Z,43.60
2018-12-16T07:53:10.208Z,45.13
2018-12-16T07:55:38.670Z,44.27
2018-12-16T07:58:07.181Z,43.93
2018-12-16T08:00:35.683Z,47.67
2018-12-16T08:03:04.654Z,46.00
2018-12-16T08:05:33.085Z,47.10
2018-12-16T08:08:01.451Z,49.57
2018-12-16T08:10:29.868Z,48.27
2018-12-16T08:12:58.246Z,52.73
2018-12-16T08:15:26.734Z,46.33
2018-12-16T08:17:55.279Z,47.03
2018-12-16T08:20:23.657Z,49.53
2018-12-16T08:22:52.071Z,53.00
2018-12-16T08:25:20.439Z,49.30
2018-12-16T08:27:48.854Z,52.07
2018-12-16T08:30:17.227Z,49.53
2018-12-16T08:32:45.583Z,51.80
2018-12-16T08:35:13.913Z,48.60
2018-12-16T08:37:42.272Z,53.10
2018-12-16T08:40:10.755Z,51.33
2018-12-16T08:42:39.166Z,50.40
2018-12-16T08:45:08.223Z,48.83
2018-12-16T08:47:36.636Z,53.73
2018-12-16T08:50:05.627Z,48.67
2018-12-16T08:52:34.164Z,50.43
2018-12-16T08:55:02.629Z,48.17
2018-12-16T08:57:31.047Z,50.23
2018-12-16T08:59:59.419Z,50.73
2018-12-16T09:02:27.811Z,54.10
2018-12-16T09:04:56.205Z,50.07
2018-12-16T09:07:24.626Z,46.33
2018-12-16T09:09:52.971Z,46.27
2018-12-16T09:12:21.408Z,48.57
2018-12-16T09:14:49.843Z,48.53
2018-12-16T09:17:18.352Z,50.50
2018-12-16T09:19:46.821Z,46.87
2018-12-16T09:22:15.152Z,47.17
2018-12-16T09:24:43.532Z,49.70
2018-12-16T09:27:12.019Z,48.37
2018-12-16T09:29:40.700Z,52.37
2018-12-16T09:32:09.077Z,54.87
2018-12-16T09:34:37.520Z,47.97
2018-12-16T09:37:05.944Z,56.40
2018-12-16T09:39:34.306Z,48.27
2018-12-16T09:42:02.733Z,48.33
2018-12-16T09:44:31.257Z,52.33
2018-12-16T09:46:59.600Z,51.30
2018-12-16T09:49:27.999Z,45.27
2018-12-16T09:51:56.386Z,47.60
2018-12-16T09:54:24.896Z,49.27
2018-12-16T09:56:53.324Z,49.13
2018-12-16T09:59:21.725Z,45.97
2018-12-16T10:01:50.104Z,41.10
2018-12-16T10:04:18.542Z,43.87
2018-12-16T10:06:47.050Z,50.30
2018-12-16T10:09:15.563Z,48.63
2018-12-16T10:11:43.940Z,43.23
2018-12-16T10:14:12.347Z,47.50
2018-12-16T10:16:40.811Z,47.37
2018-12-16T10:19:09.276Z,49.37
2018-12-16T10:21:37.628Z,42.87
2018-12-16T10:24:05.986Z,46.93
2018-12-16T10:26:34.339Z,47.57
2018-12-16T10:29:02.717Z,45.10
2018-12-16T10:31:32.186Z,42.10
2018-12-16T10:34:00.771Z,41.20
2018-12-16T10:36:29.139Z,44.27
2018-12-16T10:38:57.491Z,45.50
2018-12-16T10:41:25.864Z,43.23
2018-12-16T10:43:54.232Z,43.70
2018-12-16T10:46:22.723Z,43.70
2018-12-16T10:48:51.204Z,41.27
2018-12-16T10:51:19.624Z,42.23
2018-12-16T10:53:47.961Z,36.43
2018-12-16T10:56:16.286Z,41.93
2018-12-16T10:58:44.715Z,41.70
2018-12-16T11:01:18.465Z,41.50
2018-12-16T11:03:46.891Z,46.03
2018-12-16T11:06:15.288Z,43.57
2018-12-16T11:08:44.249Z,40.97
2018-12-16T11:11:12.799Z,38.73
2018-12-16T11:13:41.235Z,38.37
2018-12-16T11:16:09.605Z,41.70
2018-12-16T11:18:38.102Z,43.13
2018-12-16T11:21:06.560Z,37.70
2018-12-16T11:23:35.100Z,40.43
2018-12-16T11:26:03.603Z,39.57
2018-12-16T11:28:31.974Z,44.27
2018-12-16T11:31:00.311Z,39.93
2018-12-16T11:33:28.751Z,40.33
2018-12-16T11:35:57.151Z,40.37
2018-12-16T11:38:25.493Z,44.80
2018-12-16T11:40:53.833Z,41.10
2018-12-16T11:43:22.199Z,36.67
2018-12-16T11:45:50.554Z,37.80
2018-12-16T11:48:19.056Z,39.40
2018-12-16T11:50:47.394Z,41.50
2018-12-16T11:53:15.900Z,43.23
2018-12-16T11:55:44.307Z,37.93
2018-12-16T11:58:12.723Z,40.43
2018-12-16T12:00:41.143Z,37.93
2018-12-16T12:03:09.573Z,38.90
2018-12-16T12:05:37.953Z,41.07
2018-12-16T12:08:06.358Z,45.00
2018-12-16T12:10:34.787Z,36.57
2018-12-16T12:13:03.161Z,41.53
2018-12-16T12:15:31.644Z,43.20
2018-12-16T12:18:00.044Z,38.20
2018-12-16T12:20:28.715Z,40.23
2018-12-16T12:22:57.291Z,42.57
2018-12-16T12:25:25.648Z,45.80
2018-12-16T12:27:54.187Z,38.10
2018-12-16T12:30:22.584Z,40.37
2018-12-16T12:32:50.968Z,46.10
2018-12-16T12:35:19.576Z,36.13
2018-12-16T12:37:48.117Z,40.70
2018-12-16T12:40:16.587Z,44.77
2018-12-16T12:42:45.089Z,40.70
2018-12-16T12:45:13.572Z,44.47
2018-12-16T12:47:41.975Z,37.00
2018-12-16T12:50:10.456Z,40.23
2018-12-16T12:52:38.869Z,41.10
2018-12-16T12:55:07.480Z,35.20
2018-12-16T12:57:35.846Z,41.17
2018-12-16T13:00:06.701Z,44.20
2018-12-16T13:02:35.050Z,43.57
2018-12-16T13:05:03.403Z,41.53
2018-12-16T13:07:31.815Z,43.03
2018-12-16T13:10:00.259Z,38.80
2018-12-16T13:12:28.582Z,40.13
2018-12-16T13:14:56.930Z,38.90
2018-12-16T13:17:25.442Z,42.10
2018-12-16T13:19:53.844Z,42.67
2018-12-16T13:22:22.216Z,43.73
2018-12-16T13:25:01.886Z,37.67
2018-12-16T13:27:30.249Z,39.43
2018-12-16T13:29:58.626Z,41.70
2018-12-16T13:32:26.991Z,43.93
2018-12-16T13:34:55.362Z,44.97
2018-12-16T13:37:23.716Z,46.10
2018-12-16T13:39:52.066Z,41.77
2018-12-16T13:42:20.432Z,43.67
2018-12-16T13:44:48.771Z,46.07
2018-12-16T13:47:17.185Z,42.80
2018-12-16T13:49:45.648Z,45.23
2018-12-16T13:52:14.138Z,44.67
2018-12-16T13:54:42.572Z,43.80
2018-12-16T13:57:10.977Z,44.47
2018-12-16T13:59:39.355Z,47.70
2018-12-16T14:02:07.727Z,56.27
2018-12-16T14:04:36.147Z,53.33
2018-12-16T14:07:04.490Z,52.83
2018-12-16T14:09:32.828Z,45.47
2018-12-16T14:12:01.215Z,48.80
2018-12-16T14:14:29.563Z,46.63
2018-12-16T14:16:57.948Z,50.90
2018-12-16T14:19:26.301Z,49.47
2018-12-16T14:21:54.749Z,44.47
2018-12-16T14:24:23.363Z,47.23
2018-12-16T14:26:51.707Z,48.30
2018-12-16T14:29:20.092Z,44.97
2018-12-16T14:31:48.449Z,49.33
2018-12-16T14:34:17.814Z,51.37
2018-12-16T14:36:46.835Z,47.83
2018-12-16T14:39:15.193Z,47.00
2018-12-16T14:41:43.561Z,54.37
2018-12-16T14:44:11.925Z,50.10
2018-12-16T14:46:40.267Z,49.07
2018-12-16T14:49:08.615Z,49.87
2018-12-16T14:51:36.967Z,46.67
2018-12-16T14:54:05.353Z,46.03
2018-12-16T14:56:33.721Z,49.27
2018-12-16T14:59:02.140Z,46.73
2018-12-16T15:01:30.520Z,50.47
2018-12-16T15:03:58.975Z,51.07
2018-12-16T15:06:27.355Z,55.13
2018-12-16T15:08:55.734Z,50.27
2018-12-16T15:11:24.147Z,48.23
2018-12-16T15:13:52.517Z,43.53
2018-12-16T15:16:20.896Z,52.17
2018-12-16T15:18:49.264Z,51.13
2018-12-16T15:21:18.102Z,56.47
2018-12-16T15:23:46.552Z,52.60
2018-12-16T15:26:14.912Z,52.80
2018-12-16T15:28:43.319Z,50.00
2018-12-16T15:31:11.748Z,54.90
2018-12-16T15:33:40.207Z,52.70
2018-12-16T15:36:08.586Z,47.87
2018-12-16T15:38:37.019Z,49.27
2018-12-16T15:41:05.434Z,49.67
2018-12-16T15:43:33.794Z,49.77
2018-12-16T15:46:02.229Z,55.17
2018-12-16T15:48:30.610Z,51.00
2018-12-16T15:50:58.982Z,54.27
2018-12-16T15:53:27.375Z,54.83
2018-12-16T15:55:55.775Z,51.53
2018-12-16T15:58:24.163Z,56.87
2018-12-16T16:00:52.578Z,58.47
2018-12-16T16:03:20.943Z,46.80
2018-12-16T16:05:49.315Z,50.93
2018-12-16T16:08:17.766Z,51.40
2018-12-16T16:10:46.159Z,52.67
2018-12-16T16:13:14.508Z,45.10
2018-12-16T16:15:42.929Z,53.20
2018-12-16T16:18:11.299Z,43.83
2018-12-16T16:20:39.728Z,46.83
2018-12-16T16:23:08.101Z,53.23
2018-12-16T16:25:36.579Z,50.80
2018-12-16T16:28:05.145Z,52.03
2018-12-16T16:30:33.571Z,42.87
2018-12-16T16:33:02.062Z,54.13
2018-12-16T16:35:30.468Z,52.83
2018-12-16T16:38:00.779Z,49.13
2018-12-16T16:40:29.764Z,45.87
2018-12-16T16:42:58.219Z,56.70
2018-12-16T16:45:26.710Z,50.50
2018-12-16T16:47:55.054Z,53.47
2018-12-16T16:50:23.435Z,47.80
2018-12-16T16:52:51.868Z,52.00
2018-12-16T16:55:20.245Z,51.73
2018-12-16T16:57:48.697Z,53.50
2018-12-16T17:00:17.072Z,51.53
2018-12-16T17:02:45.437Z,57.83
2018-12-16T17:05:13.811Z,57.13
2018-12-16T17:07:42.163Z,52.13
2018-12-16T17:10:10.626Z,51.33
2018-12-16T17:12:39.243Z,56.07
2018-12-16T17:15:07.998Z,56.63
2018-12-16T17:17:36.811Z,55.17
2018-12-16T17:20:06.363Z,58.73
2018-12-16T17:22:34.780Z,53.03
2018-12-16T17:25:03.453Z,49.90
2018-12-16T17:27:31.843Z,53.57
2018-12-16T17:30:02.129Z,51.37
2018-12-16T17:32:30.755Z,54.37
2018-12-16T17:34:59.290Z,42.93
2018-12-16T17:37:27.673Z,55.00
2018-12-16T17:39:56.051Z,44.80
2018-12-16T17:42:24.452Z,46.90
2018-12-16T17:44:52.775Z,45.10
2018-12-16T17:47:21.137Z,47.47
2018-12-16T17:49:50.545Z,57.20
2018-12-16T17:52:18.907Z,46.73
2018-12-16T17:54:47.315Z,55.03
2018-12-16T17:57:15.660Z,54.37
2018-12-16T17:59:44.002Z,57.63
2018-12-16T18:02:12.431Z,49.10
2018-12-16T18:04:40.773Z,45.70
2018-12-16T18:07:09.219Z,48.37
2018-12-16T18:09:37.647Z,51.83
2018-12-16T18:12:06.054Z,50.83
2018-12-16T18:14:34.528Z,49.37
2018-12-16T18:17:03.872Z,48.33
2018-12-16T18:19:32.323Z,49.03
2018-12-16T18:22:01.553Z,53.30
2018-12-16T18:24:29.995Z,51.17
2018-12-16T18:26:58.367Z,54.67
2018-12-16T18:29:26.723Z,53.03
2018-12-16T18:31:55.055Z,54.17
2018-12-16T18:34:23.459Z,50.03
2018-12-16T18:36:51.808Z,46.77
2018-12-16T18:39:20.188Z,49.40
2018-12-16T18:41:48.851Z,47.87
2018-12-16T18:44:17.238Z,44.57
2018-12-16T18:46:45.591Z,49.83
2018-12-16T18:49:14.035Z,49.13
2018-12-16T18:51:42.408Z,49.97
2018-12-16T18:54:10.750Z,44.50
2018-12-16T18:56:39.231Z,50.77
2018-12-16T18:59:07.712Z,49.33
2018-12-16T19:01:36.087Z,44.17
2018-12-16T19:04:04.528Z,48.47
2018-12-16T19:06:33.216Z,47.43
2018-12-16T19:09:01.664Z,47.70
2018-12-16T19:11:30.087Z,47.83
2018-12-16T19:13:58.501Z,49.37
2018-12-16T19:16:26.975Z,47.57
2018-12-16T19:18:55.745Z,50.37
2018-12-16T19:21:24.159Z,49.97
2018-12-16T19:23:52.748Z,46.33
2018-12-16T19:26:21.201Z,43.83
2018-12-16T19:28:49.576Z,39.43
2018-12-16T19:31:17.955Z,45.60
2018-12-16T19:33:46.407Z,40.20
2018-12-16T19:36:14.749Z,41.30
2018-12-16T19:38:43.115Z,53.87
2018-12-16T19:41:11.543Z,51.10
2018-12-16T19:43:39.896Z,49.80
2018-12-16T19:46:08.255Z,49.20
2018-12-16T19:48:36.835Z,49.20
2018-12-16T19:51:05.181Z,42.83
2018-12-16T19:53:33.511Z,36.67
2018-12-16T19:56:01.906Z,53.53
2018-12-16T19:58:30.423Z,49.80
2018-12-16T20:00:58.828Z,49.00
2018-12-16T20:03:27.171Z,48.97
2018-12-16T20:06:01.071Z,45.63
2018-12-16T20:08:29.440Z,40.20
2018-12-16T20:10:57.848Z,50.07
2018-12-16T20:13:26.203Z,37.20
2018-12-16T20:16:01.372Z,40.63
2018-12-16T20:18:25.007Z,50.23
2018-12-16T20:20:53.376Z,47.60
2018-12-16T20:23:21.711Z,47.97
2018-12-16T20:25:50.175Z,45.90
2018-12-16T20:28:18.820Z,45.83
2018-12-16T20:30:47.188Z,51.07
2018-12-16T20:33:15.520Z,42.60
2018-12-16T20:35:44.085Z,52.97
2018-12-16T20:38:12.663Z,49.63
2018-12-16T20:40:41.124Z,45.93
2018-12-16T20:43:09.603Z,38.10
2018-12-16T20:45:38.123Z,41.53
2018-12-16T20:48:06.484Z,40.13
2018-12-16T20:50:34.958Z,46.87
2018-12-16T20:53:03.400Z,43.43
2018-12-16T20:55:31.811Z,42.40
2018-12-16T20:58:00.172Z,44.70
2018-12-16T21:00:28.553Z,44.73
2018-12-16T21:02:56.919Z,38.70
2018-12-16T21:05:25.291Z,46.13
2018-12-16T21:07:53.740Z,45.43
2018-12-16T21:10:22.102Z,41.73
2018-12-16T21:12:55.811Z,44.93
2018-12-16T21:15:29.491Z,46.20
2018-12-16T21:18:03.347Z,42.83
2018-12-16T21:20:31.724Z,42.97
2018-12-16T21:23:00.095Z,44.20
2018-12-16T21:25:28.616Z,43.23
2018-12-16T21:27:57.023Z,40.97
2018-12-16T21:30:25.350Z,36.73
2018-12-16T21:32:53.695Z,37.80
2018-12-16T21:35:22.120Z,40.63
2018-12-16T21:37:50.546Z,41.00
2018-12-16T21:40:18.922Z,42.77
2018-12-16T21:42:54.294Z,42.63
2018-12-16T21:45:22.639Z,44.43
2018-12-16T21:47:51.008Z,44.50
2018-12-16T21:50:19.349Z,44.00
2018-12-16T21:52:47.737Z,46.13
2018-12-16T21:55:16.096Z,43.47
2018-12-16T21:57:44.479Z,40.90
2018-12-16T22:00:13.306Z,46.60
2018-12-16T22:02:41.659Z,47.50
2018-12-16T22:05:11.503Z,42.00
2018-12-16T22:07:39.982Z,36.47
2018-12-16T22:10:08.443Z,43.93
2018-12-16T22:12:36.874Z,43.83
2018-12-16T22:15:05.596Z,42.00
2018-12-16T22:17:34.052Z,43.13
2018-12-16T22:20:02.581Z,48.17
2018-12-16T22:22:30.983Z,39.87
2018-12-16T22:24:59.330Z,40.77
2018-12-16T22:27:28.288Z,43.20
2018-12-16T22:29:56.647Z,45.90
2018-12-16T22:32:25.159Z,45.93
2018-12-16T22:34:53.537Z,43.27
2018-12-16T22:37:22.047Z,53.47
2018-12-16T22:39:50.427Z,51.97
2018-12-16T22:42:18.874Z,52.10
2018-12-16T22:44:47.359Z,49.23
2018-12-16T22:47:15.708Z,46.23
2018-12-16T22:49:44.072Z,52.40
2018-12-16T22:52:12.407Z,53.77
2018-12-16T22:54:40.799Z,52.37
2018-12-16T22:57:09.147Z,44.77
2018-12-16T22:59:37.538Z,40.97
2018-12-16T23:02:05.877Z,51.57
2018-12-16T23:04:34.323Z,55.30
2018-12-16T23:07:02.688Z,58.43
2018-12-16T23:09:31.032Z,55.87
2018-12-16T23:11:59.513Z,51.17
2018-12-16T23:14:27.859Z,53.73
2018-12-16T23:16:56.236Z,51.70
2018-12-16T23:19:24.601Z,52.40
2018-12-16T23:21:53.007Z,51.67
2018-12-16T23:24:21.956Z,56.63
2018-12-16T23:26:50.335Z,45.77
2018-12-16T23:29:18.707Z,49.17
2018-12-16T23:31:47.091Z,55.47
2018-12-16T23:34:15.529Z,50.87
2018-12-16T23:36:43.953Z,58.67
2018-12-16T23:39:12.401Z,51.13
2018-12-16T23:41:40.768Z,42.87
2018-12-16T23:44:09.112Z,58.37
2018-12-16T23:46:37.470Z,56.20
2018-12-16T23:49:05.844Z,56.57
2018-12-16T23:51:34.238Z,54.53
2018-12-16T23:54:02.603Z,58.73
2018-12-16T23:56:30.991Z,60.27
2018-12-16T23:58:59.343Z,58.13
